Aviation Digital Data Service (ADDS)

Output produced by METARs form (1912 UTC 18 June 2019)
found at http://www.aviationweather.gov/metar/data/
 
SBMD 181800Z 18003KT 9999 BKN022 30/26 Q1012
SBAT 181800Z 07006KT 9999 FEW040 34/17 Q1014
TAF SBAT 181510Z 1818/1906 11005KT 9999 FEW040TX34/1818Z TN22/1906Z 
     BECMG 1820/1822 00000KT CAVOK RMK PHI
       
SBHT 181800Z 11004KT 9999 SCT030 33/24 Q1011
SBAN 181800Z 24004KT CAVOK 26/09 Q1021
TAF SBAN 181600Z 1818/1906 10008KT 9999 SCT040 TX25/1818Z TN16/1906Z 
     BECMG 1821/1822 CAVOK RMK PFM
       
SBAR 181900Z 14010KT 9999 SCT017 27/23 Q1016
TAF SBAR 181600Z 1818/1918 12008KT 9999 SCT020 TX30/1818Z TN27/1907Z 
     BECMG 1820/1821 SCT017 RMK PFM
       
SBAX 181800Z 02003KT 9999 SCT045 24/12 Q1021
SBBG 181900Z 30012KT 9999 BKN023 OVC090 22/17 Q1013
TAF SBBG 181530Z 1818/1918 04005KT 9999 SCT020 TX25/1818Z TN13/1908Z 
     TEMPO 1818/1912 33007KT 8000 RA BKN010 BKN020 RMK PCO
       
SBBQ 181800Z 10007KT 9999 BKN030 20/14 Q1024
SBBW 181800Z 07012KT CAVOK 32/15 Q1016
TAF SBBW 181600Z 1818/1906 12010KT CAVOK TX30/1818Z TN18/1905Z RMK PFM
       
SBBU 181800Z 31008KT CAVOK 27/13 Q1019
TAF SBBU 181530Z 1818/1906 12006KT CAVOK TX28/1818Z TN18/1905Z RMK PCO
       
SBBE 181900Z 09007KT 9999 FEW040 32/22 Q1011
TAF SBBE 181510Z 1818/1918 11010KT 9999 SCT030 TX32/1818Z TN24/1909Z 
     TEMPO 1818/1903 05010KT 4000 SHRA BKN020 FEW025TCU 
     BECMG 1903/1905 FEW010 
     BECMG 1911/1914 SCT023 
     BECMG 1915/1918 SCT030 FEW035TCU RMK PHI
       
SBBH 181800Z 05005KT CAVOK 25/11 Q1021
SBCF 181900Z 07006KT 9999 BKN045 23/14 Q1021
TAF SBCF 181600Z 1818/1918 12008KT 9999 SCT040 TX24/1818Z TN14/1907Z 
     BECMG 1820/1821 12008KT CAVOK 
     BECMG 1908/1909 14008KT SCT030 
     BECMG 1916/19 18 09008KT RMK PFM
       
SBLS 181800Z 06005KT 360V140 9999 FEW035 26/10 Q1021
SBBV 181900Z 14003KT 9999 FEW030 FEW035TCU 32/22 Q1011
TAF SBBV 181510Z 1818/1918 07005KT 9999 BKN025 FEW030TCU TX31/1820Z TN24/1910Z 
     TEMPO 1818/1822 8000 SHRA 
     BECMG 1906/1908 SCT007 
     BECMG 1910/1912 SCT015 SCT035 
     TEMPO 1912/1918 4000 SHRA BKN007 FEW025TCU RMK PHI
       
SBBR 181900Z 05003KT CAVOK 28/12 Q1020
TAF SBBR 181600Z 1818/1918 09008KT 9999 SCT045 TN19/1904Z TX26/1917Z 
     BECMG 1820/1822 10006KT CAVOK 
     BECMG 1913/1914 08010KT SCT040 RMK PFM
       
SBCB 181900Z 11009KT 9999 FEW025 25/18 Q1019
TAF SBCB 181530Z 1818/1918 08012KT 9999 FEW030 TN20/1909Z TX28/1917Z 
     BECMG 1900/1902 06007KT CAVOK 
     BECMG 1908/1909 04005KT 
     BECMG 1910/1911 0701 0KT 9999 SCT020 
     BECMG 1914/1916 09012KT CAVOK RMK PGB
       
SBKG 181800Z 12008KT 8000 BKN015 BKN080 25/21 Q1017
TAF SBKG 181600Z 1818/1906 12010KT 9999 SCT009 BKN017 TX26/1818Z TN21/1905Z 
     BECMG 1822/1823 16005KT SCT015 RMK PFM
       
SBKP 181900Z 34004KT 260V350 CAVOK 25/10 Q1020
TAF SBKP 181601Z 1818/1918 35006KT 9999 SCT040 TN16/1909Z TX25/1917Z 
     BECMG 1821/1823 35005KT 
     BECMG 1823/1901 09006KT FEW040 
     BECMG 1911/1913 07005KT 
     BECMG 1913/1915 33006KT 
     BECMG 1915/1917 30006KT RMK PGM
       
SBCG 181900Z 36009KT 290V010 CAVOK 28/11 Q1016
TAF SBCG 181530Z 1818/1918 36010KT 9999 FEW040 TX31/1818Z TN20/1908Z 
     BECMG 1820/1822 30005KT CAVOK RMK PCO
       
SBCP 181900Z 08008KT CAVOK 25/18 Q1019
TAF SBCP 181530Z 1818/1906 08010KT 9999 SCT017 TX28/1818Z TN22/1824Z 
     BECMG 1822/1824 05005KT CAVOK RMK PGB
       
SBCI 181800Z 11004KT 9999 FEW035 BKN100 32/22 Q1012
SBCA 181800Z 01020KT CAVOK 24/15 Q1019
SBCX 181800Z 36008KT CAVOK 20/15 Q1018
SBCH 181700Z 01010G20KT 9999 FEW035 SCT100 24/13 Q1018
SBAA 181800Z 11006KT 9999 BKN035 ///// Q1012
SBCR 181900Z 07012KT CAVOK 30/19 Q1012
TAF SBCR 181530Z 1818/1918 07006KT CAVOK TX32/1818Z TN23/1908Z RMK PC O
       
SBCZ 181900Z 07004KT 9999 SCT030 32/23 Q1013
TAF SBCZ 181530Z 1818/1918 15007KT 9999 SCT020 TX31/1818Z TN23/1906Z 
     BECMG 1819/1821 32005KT FEW030 
     BECMG 1905/1907 00000KT 7000 
     BECMG 1912/191 4 35005KT SCT010 
     BECMG 1915/1916 07007KT 9999 BKN030 RMK PGB
       
SBCY 181900Z 30006KT CAVOK 35/14 Q1014
TAF SBCY 181530Z 1818/1918 01007KT 9999 SCT020 TN22/1908Z TX37/1917Z 
     BECMG 1822/1824 12005KT FEW025 
     BECMG 1903/1906 32005KT CAVOK 
     BECMG 1911/19 13 36005KT 7000 NSC 
     BECMG 1915/1917 02007KT 9999 SCT030 RMK PGB
       
SBCT 181900Z 31010KT 9999 BKN040 20/10 Q1021
TAF SBCT 181530Z 1818/1918 01007KT 9999 SCT030 TX22/1818Z TN11/1908Z 
     BECMG 1822/1824 3500 BR BKN004 BKN020 
     PROB40 1906/1910 10002KT 0700 FG BKN 002 
     BECMG 1910/1912 33005KT 9999 NSW SCT020 RMK PCO
       
SBBI 181800Z 30004KT 9999 BKN045 20/10 Q1021
TAF SBBI 181530Z 1818/1906 36007KT 9999 SCT030 TX22/1818Z TN12/1906Z 
     PROB40 1903/1906 10002KT 0700 FG BKN002 RMK PCO
       
SBFN 181900Z 10009KT CAVOK 28/21 Q1014
TAF SBFN 181600Z 1818/1906 13010KT 9999 SCT020 TX28/1818Z TN25/1905Z 
     BECMG 1821/1822 04003KT SCT017 RMK PFM
       
SBFL 181900Z 01011KT 9999 FEW030 24/19 Q1016
TAF SBFL 181530Z 1818/1918 35010KT CAVOK TX27/1818Z TN20/1908Z 
     BECMG 1820/1822 32005KT 9999 FEW020 RMK PCO
       
SBFZ 181900Z 08011KT 9999 FEW021 29/23 Q1013
TAF SBFZ 181600Z 1818/1918 10010KT 9999 SCT025 TN23/1907Z TX27/1917Z 
     BECMG 1821/1822 14004KT SCT018 RMK PFM
       
SBFI 181900Z 01012KT CAVOK 27/15 Q1015
TAF SBFI 181530Z 1818/1918 03010KT CAVOK TX28/1818Z TN20/1908Z 
     PROB40 1906/1910 10002KT 3000 BCFG FEW015 RMK PCO
       
SBGO 181900Z 26007KT 220V310 CAVOK 30/12 Q1018
TAF SBGO 181600Z 1818/1918 13010KT 9999 SCT046 TX29/1818Z TN19/1907Z 
     BECMG 1820/1821 10010KT CAVOK 
     BECMG 1914/1915 SCT040 RMK PFM
       
SBGM 181800Z 02005KT CAVOK 33/20 Q1013
SBGW 181800Z 36004KT 7000 FEW020 25/15 Q1020
TAF SBGW 181530Z 1818/1906 01005KT 9999 SCT020 TX28/1818Z TN18/1905Z 
     PROB40 
     TEMPO 1902/1906 36002KT 4000 BR SCT012 RMK PCO
       
SBST 181800Z 25004KT CAVOK 25/19 Q1018
SBIL 181800Z 15010KT 9999 FEW025 28/20 Q1018
TAF SBIL 181600Z 1818/1906 17005KT 8000 SCT020 FEW030TCU TX28/1818Z TN22/1904Z 
     BECMG 1822/1823 20005KT SCT025 
     BECMG 1901/1903 24005KT RMK PFM
       
SBIZ 181800Z 11005KT 9999 SCT030 34/21 Q1012
TAF SBIZ 181510Z 1818/1906 12007KT 9999 SCT030TX34/1819Z TN24/1906Z 
     BECMG 1900/1902 00000KT CAVOK RMK PHI
       
SBIP 181800Z 05006KT 9999 SCT030 29/17 Q1019
SBIC 181800Z 17004KT 9999 SCT020 31/25 Q1011
SBIH 181800Z 06008KT 9999 FEW023 34/23 Q1010
TAF SBIH 181510Z 1818/1906 06005KT 9999 FEW023 FEW027TCUTX34/1818Z TN25/1906Z
RMK PHI